sensor_id;sensor_type;location;lat;lon;timestamp;pressure;altitude;pressure_sealevel;temperature
84287;BMP280;74445;55.252;61.092;2024-01-16T00:00:54;140014.91;;;-21.12
84287;BMP280;74445;55.252;61.092;2024-01-16T00:03:21;140000.63;;;-21.18
84287;BMP280;74445;55.252;61.092;2024-01-16T00:05:47;139998.25;;;-21.19
84287;BMP280;74445;55.252;61.092;2024-01-16T00:08:13;139993.47;;;-21.21
84287;BMP280;74445;55.252;61.092;2024-01-16T00:10:40;139974.44;;;-21.29
84287;BMP280;74445;55.252;61.092;2024-01-16T00:13:07;139979.19;;;-21.27
84287;BMP280;74445;55.252;61.092;2024-01-16T00:15:35;139964.91;;;-21.33
84287;BMP280;74445;55.252;61.092;2024-01-16T00:18:01;139948.25;;;-21.40
84287;BMP280;74445;55.252;61.092;2024-01-16T00:20:27;139933.97;;;-21.46
84287;BMP280;74445;55.252;61.092;2024-01-16T00:22:53;139919.69;;;-21.52
84287;BMP280;74445;55.252;61.092;2024-01-16T00:25:20;139903.09;;;-21.59
84287;BMP280;74445;55.252;61.092;2024-01-16T00:27:47;139899.50;;;-21.61
84287;BMP280;74445;55.252;61.092;2024-01-16T00:30:14;139893.56;;;-21.63
84287;BMP280;74445;55.252;61.092;2024-01-16T00:32:42;139910.19;;;-21.56
84287;BMP280;74445;55.252;61.092;2024-01-16T00:35:08;139901.88;;;-21.60
84287;BMP280;74445;55.252;61.092;2024-01-16T00:37:36;139911.34;;;-21.56
84287;BMP280;74445;55.252;61.092;2024-01-16T00:40:03;139917.31;;;-21.53
84287;BMP280;74445;55.252;61.092;2024-01-16T00:42:31;139939.91;;;-21.44
84287;BMP280;74445;55.252;61.092;2024-01-16T00:44:58;139908.97;;;-21.57
84287;BMP280;74445;55.252;61.092;2024-01-16T00:47:24;139898.31;;;-21.61
84287;BMP280;74445;55.252;61.092;2024-01-16T00:49:52;139908.97;;;-21.57
84287;BMP280;74445;55.252;61.092;2024-01-16T00:52:19;139911.34;;;-21.56
84287;BMP280;74445;55.252;61.092;2024-01-16T00:54:45;139907.78;;;-21.57
84287;BMP280;74445;55.252;61.092;2024-01-16T00:57:11;139887.59;;;-21.66
84287;BMP280;74445;55.252;61.092;2024-01-16T00:59:38;139885.22;;;-21.67
84287;BMP280;74445;55.252;61.092;2024-01-16T01:02:04;139889.97;;;-21.65
84287;BMP280;74445;55.252;61.092;2024-01-16T01:04:32;139891.19;;;-21.64
84287;BMP280;74445;55.252;61.092;2024-01-16T01:09:29;139875.75;;;-21.71
84287;BMP280;74445;55.252;61.092;2024-01-16T01:11:55;139847.19;;;-21.83
84287;BMP280;74445;55.252;61.092;2024-01-16T01:14:22;139849.56;;;-21.82
84287;BMP280;74445;55.252;61.092;2024-01-16T01:16:48;139842.44;;;-21.84
84287;BMP280;74445;55.252;61.092;2024-01-16T01:19:14;139854.31;;;-21.80
84287;BMP280;74445;55.252;61.092;2024-01-16T01:21:41;139840.06;;;-21.85
84287;BMP280;74445;55.252;61.092;2024-01-16T01:24:07;139837.69;;;-21.86
84287;BMP280;74445;55.252;61.092;2024-01-16T01:26:36;139826.94;;;-21.91
84287;BMP280;74445;55.252;61.092;2024-01-16T01:29:03;139805.53;;;-22.00
84287;BMP280;74445;55.252;61.092;2024-01-16T01:31:29;139802.00;;;-22.01
84287;BMP280;74445;55.252;61.092;2024-01-16T01:33:55;139794.84;;;-22.04
84287;BMP280;74445;55.252;61.092;2024-01-16T01:36:22;139786.50;;;-22.08
84287;BMP280;74445;55.252;61.092;2024-01-16T01:38:48;139788.88;;;-22.07
84287;BMP280;74445;55.252;61.092;2024-01-16T01:41:14;139787.72;;;-22.07
84287;BMP280;74445;55.252;61.092;2024-01-16T01:43:42;139791.25;;;-22.06
84287;BMP280;74445;55.252;61.092;2024-01-16T01:46:10;139782.97;;;-22.09
84287;BMP280;74445;55.252;61.092;2024-01-16T01:48:38;139778.22;;;-22.11
84287;BMP280;74445;55.252;61.092;2024-01-16T01:51:06;139760.34;;;-22.19
84287;BMP280;74445;55.252;61.092;2024-01-16T01:53:33;139744.91;;;-22.25
84287;BMP280;74445;55.252;61.092;2024-01-16T01:56:04;139731.81;;;-22.31
84287;BMP280;74445;55.252;61.092;2024-01-16T01:58:32;139737.78;;;-22.28
84287;BMP280;74445;55.252;61.092;2024-01-16T02:01:01;139730.66;;;-22.31
84287;BMP280;74445;55.252;61.092;2024-01-16T02:03:29;139721.19;;;-22.35
84287;BMP280;74445;55.252;61.092;2024-01-16T02:05:59;139706.91;;;-22.41
84287;BMP280;74445;55.252;61.092;2024-01-16T02:08:26;139702.16;;;-22.43
84287;BMP280;74445;55.252;61.092;2024-01-16T02:10:53;139692.66;;;-22.47
84287;BMP280;74445;55.252;61.092;2024-01-16T02:13:19;139687.91;;;-22.49
84287;BMP280;74445;55.252;61.092;2024-01-16T02:15:49;139683.13;;;-22.51
84287;BMP280;74445;55.252;61.092;2024-01-16T02:18:18;139677.16;;;-22.54
84287;BMP280;74445;55.252;61.092;2024-01-16T02:20:44;139691.44;;;-22.48
84287;BMP280;74445;55.252;61.092;2024-01-16T02:23:13;139691.44;;;-22.48
84287;BMP280;74445;55.252;61.092;2024-01-16T02:25:42;139691.44;;;-22.48
84287;BMP280;74445;55.252;61.092;2024-01-16T02:28:08;139684.31;;;-22.51
84287;BMP280;74445;55.252;61.092;2024-01-16T02:30:35;139676.00;;;-22.54
84287;BMP280;74445;55.252;61.092;2024-01-16T02:33:01;139670.03;;;-22.57
84287;BMP280;74445;55.252;61.092;2024-01-16T02:35:29;139664.13;;;-22.59
84287;BMP280;74445;55.252;61.092;2024-01-16T02:37:56;139697.41;;;-22.45
84287;BMP280;74445;55.252;61.092;2024-01-16T02:40:22;139709.28;;;-22.40
84287;BMP280;74445;55.252;61.092;2024-01-16T02:42:50;139699.78;;;-22.44
84287;BMP280;74445;55.252;61.092;2024-01-16T02:45:16;139716.44;;;-22.37
84287;BMP280;74445;55.252;61.092;2024-01-16T02:47:43;139697.41;;;-22.45
84287;BMP280;74445;55.252;61.092;2024-01-16T02:50:10;139673.63;;;-22.55
84287;BMP280;74445;55.252;61.092;2024-01-16T02:52:36;139673.63;;;-22.55
84287;BMP280;74445;55.252;61.092;2024-01-16T02:55:02;139657.00;;;-22.62
84287;BMP280;74445;55.252;61.092;2024-01-16T02:57:29;139676.00;;;-22.54
84287;BMP280;74445;55.252;61.092;2024-01-16T02:59:56;139667.66;;;-22.58
84287;BMP280;74445;55.252;61.092;2024-01-16T03:02:23;139643.91;;;-22.68
84287;BMP280;74445;55.252;61.092;2024-01-16T03:04:49;139630.84;;;-22.73
84287;BMP280;74445;55.252;61.092;2024-01-16T03:07:16;139617.75;;;-22.79
84287;BMP280;74445;55.252;61.092;2024-01-16T03:09:43;139608.25;;;-22.83
84287;BMP280;74445;55.252;61.092;2024-01-16T03:12:09;139620.13;;;-22.78
84287;BMP280;74445;55.252;61.092;2024-01-16T03:14:35;139615.38;;;-22.80
84287;BMP280;74445;55.252;61.092;2024-01-16T03:17:04;139636.75;;;-22.71
84287;BMP280;74445;55.252;61.092;2024-01-16T03:19:32;139624.88;;;-22.76
84287;BMP280;74445;55.252;61.092;2024-01-16T03:21:58;139630.84;;;-22.73
84287;BMP280;74445;55.252;61.092;2024-01-16T03:24:24;139647.47;;;-22.66
84287;BMP280;74445;55.252;61.092;2024-01-16T03:26:52;139642.72;;;-22.68
84287;BMP280;74445;55.252;61.092;2024-01-16T03:29:18;139647.47;;;-22.66
84287;BMP280;74445;55.252;61.092;2024-01-16T03:31:44;139634.38;;;-22.72
84287;BMP280;74445;55.252;61.092;2024-01-16T03:34:12;139636.75;;;-22.71
84287;BMP280;74445;55.252;61.092;2024-01-16T03:36:39;139635.59;;;-22.71
84287;BMP280;74445;55.252;61.092;2024-01-16T03:39:05;139637.97;;;-22.70
84287;BMP280;74445;55.252;61.092;2024-01-16T03:41:31;139636.75;;;-22.71
84287;BMP280;74445;55.252;61.092;2024-01-16T03:43:57;139640.34;;;-22.69
84287;BMP280;74445;55.252;61.092;2024-01-16T03:46:24;139642.72;;;-22.68
84287;BMP280;74445;55.252;61.092;2024-01-16T03:48:50;139634.38;;;-22.72
84287;BMP280;74445;55.252;61.092;2024-01-16T03:51:18;139636.75;;;-22.71
84287;BMP280;74445;55.252;61.092;2024-01-16T03:53:45;139624.88;;;-22.76
84287;BMP280;74445;55.252;61.092;2024-01-16T03:56:12;139629.63;;;-22.74
84287;BMP280;74445;55.252;61.092;2024-01-16T03:58:39;139636.75;;;-22.71
84287;BMP280;74445;55.252;61.092;2024-01-16T04:01:06;139624.88;;;-22.76
84287;BMP280;74445;55.252;61.092;2024-01-16T04:03:32;139618.97;;;-22.78
84287;BMP280;74445;55.252;61.092;2024-01-16T04:06:00;139624.88;;;-22.76
84287;BMP280;74445;55.252;61.092;2024-01-16T04:08:28;139617.75;;;-22.79
84287;BMP280;74445;55.252;61.092;2024-01-16T04:10:54;139618.97;;;-22.78
84287;BMP280;74445;55.252;61.092;2024-01-16T04:13:21;139641.50;;;-22.69
84287;BMP280;74445;55.252;61.092;2024-01-16T04:15:47;139645.09;;;-22.67
84287;BMP280;74445;55.252;61.092;2024-01-16T04:18:14;139664.13;;;-22.59
84287;BMP280;74445;55.252;61.092;2024-01-16T04:20:41;139686.69;;;-22.50
84287;BMP280;74445;55.252;61.092;2024-01-16T04:23:07;139703.31;;;-22.43
84287;BMP280;74445;55.252;61.092;2024-01-16T04:25:35;139722.34;;;-22.35
84287;BMP280;74445;55.252;61.092;2024-01-16T04:28:02;139746.06;;;-22.25
84287;BMP280;74445;55.252;61.092;2024-01-16T04:30:28;139781.75;;;-22.10
84287;BMP280;74445;55.252;61.092;2024-01-16T04:32:55;139788.88;;;-22.07
84287;BMP280;74445;55.252;61.092;2024-01-16T04:35:21;139805.53;;;-22.00
84287;BMP280;74445;55.252;61.092;2024-01-16T04:37:48;139836.47;;;-21.87
84287;BMP280;74445;55.252;61.092;2024-01-16T04:40:14;139863.84;;;-21.76
84287;BMP280;74445;55.252;61.092;2024-01-16T04:42:42;139958.94;;;-21.36
84287;BMP280;74445;55.252;61.092;2024-01-16T04:45:09;140162.50;;;-20.51
84287;BMP280;74445;55.252;61.092;2024-01-16T04:47:36;140455.63;;;-19.28
84287;BMP280;74445;55.252;61.092;2024-01-16T04:50:02;140803.97;;;-17.83
84287;BMP280;74445;55.252;61.092;2024-01-16T04:52:29;141168.41;;;-16.31
84287;BMP280;74445;55.252;61.092;2024-01-16T04:54:56;141523.84;;;-14.83
84287;BMP280;74445;55.252;61.092;2024-01-16T04:57:22;141825.84;;;-13.57
84287;BMP280;74445;55.252;61.092;2024-01-16T04:59:50;142112.59;;;-12.38
84287;BMP280;74445;55.252;61.092;2024-01-16T05:02:17;142334.75;;;-11.46
84287;BMP280;74445;55.252;61.092;2024-01-16T05:04:44;142509.03;;;-10.74
84287;BMP280;74445;55.252;61.092;2024-01-16T05:07:11;142672.63;;;-10.06
84287;BMP280;74445;55.252;61.092;2024-01-16T05:09:38;142859.13;;;-9.29
84287;BMP280;74445;55.252;61.092;2024-01-16T05:12:05;143012.06;;;-8.66
84287;BMP280;74445;55.252;61.092;2024-01-16T05:14:31;143080.78;;;-8.38
84287;BMP280;74445;55.252;61.092;2024-01-16T05:16:59;143080.78;;;-8.38
84287;BMP280;74445;55.252;61.092;2024-01-16T05:19:26;143024.13;;;-8.61
84287;BMP280;74445;55.252;61.092;2024-01-16T05:21:52;143026.53;;;-8.60
84287;BMP280;74445;55.252;61.092;2024-01-16T05:24:18;143035.00;;;-8.57
84287;BMP280;74445;55.252;61.092;2024-01-16T05:26:45;142978.34;;;-8.80
84287;BMP280;74445;55.252;61.092;2024-01-16T05:29:12;142890.44;;;-9.16
84287;BMP280;74445;55.252;61.092;2024-01-16T05:31:40;142808.56;;;-9.50
84287;BMP280;74445;55.252;61.092;2024-01-16T05:34:09;142739.97;;;-9.79
84287;BMP280;74445;55.252;61.092;2024-01-16T05:36:35;142660.59;;;-10.11
84287;BMP280;74445;55.252;61.092;2024-01-16T05:39:02;142534.31;;;-10.64
84287;BMP280;74445;55.252;61.092;2024-01-16T05:41:32;142358.78;;;-11.36
84287;BMP280;74445;55.252;61.092;2024-01-16T05:43:59;142232.69;;;-11.89
84287;BMP280;74445;55.252;61.092;2024-01-16T05:46:26;142129.41;;;-12.32
84287;BMP280;74445;55.252;61.092;2024-01-16T05:48:53;142112.59;;;-12.38
84287;BMP280;74445;55.252;61.092;2024-01-16T05:51:21;142108.97;;;-12.40
84287;BMP280;74445;55.252;61.092;2024-01-16T05:53:47;142231.47;;;-11.89
84287;BMP280;74445;55.252;61.092;2024-01-16T05:56:14;142370.78;;;-11.31
84287;BMP280;74445;55.252;61.092;2024-01-16T05:58:40;142438.09;;;-11.04
84287;BMP280;74445;55.252;61.092;2024-01-16T06:01:07;142519.88;;;-10.70
84287;BMP280;74445;55.252;61.092;2024-01-16T06:03:33;142589.63;;;-10.41
84287;BMP280;74445;55.252;61.092;2024-01-16T06:06:00;142628.13;;;-10.25
84287;BMP280;74445;55.252;61.092;2024-01-16T06:08:28;142724.28;;;-9.85
84287;BMP280;74445;55.252;61.092;2024-01-16T06:10:56;142851.91;;;-9.32
84287;BMP280;74445;55.252;61.092;2024-01-16T06:13:22;142904.88;;;-9.10
84287;BMP280;74445;55.252;61.092;2024-01-16T06:15:48;142950.66;;;-8.91
84287;BMP280;74445;55.252;61.092;2024-01-16T06:18:15;142997.63;;;-8.72
84287;BMP280;74445;55.252;61.092;2024-01-16T06:20:41;142956.66;;;-8.89
84287;BMP280;74445;55.252;61.092;2024-01-16T06:23:08;142914.53;;;-9.06
84287;BMP280;74445;55.252;61.092;2024-01-16T06:25:36;142836.28;;;-9.39
84287;BMP280;74445;55.252;61.092;2024-01-16T06:28:03;142770.03;;;-9.66
84287;BMP280;74445;55.252;61.092;2024-01-16T06:30:31;142760.41;;;-9.70
84287;BMP280;74445;55.252;61.092;2024-01-16T06:32:58;142823.00;;;-9.44
84287;BMP280;74445;55.252;61.092;2024-01-16T06:35:24;142925.38;;;-9.02
84287;BMP280;74445;55.252;61.092;2024-01-16T06:37:51;142898.88;;;-9.13
84287;BMP280;74445;55.252;61.092;2024-01-16T06:40:18;142908.53;;;-9.09
84287;BMP280;74445;55.252;61.092;2024-01-16T06:42:46;142833.88;;;-9.40
84287;BMP280;74445;55.252;61.092;2024-01-16T06:45:12;142888.03;;;-9.17
84287;BMP280;74445;55.252;61.092;2024-01-16T06:47:39;142873.56;;;-9.23
84287;BMP280;74445;55.252;61.092;2024-01-16T06:50:08;142915.75;;;-9.06
84287;BMP280;74445;55.252;61.092;2024-01-16T06:52:34;142873.56;;;-9.23
84287;BMP280;74445;55.252;61.092;2024-01-16T06:55:01;142862.75;;;-9.28
84287;BMP280;74445;55.252;61.092;2024-01-16T06:57:30;142833.88;;;-9.40
84287;BMP280;74445;55.252;61.092;2024-01-16T06:59:58;142820.59;;;-9.45
84287;BMP280;74445;55.252;61.092;2024-01-16T07:02:24;142901.28;;;-9.12
84287;BMP280;74445;55.252;61.092;2024-01-16T07:04:52;142922.97;;;-9.03
84287;BMP280;74445;55.252;61.092;2024-01-16T07:07:18;142919.34;;;-9.04
84287;BMP280;74445;55.252;61.092;2024-01-16T07:09:45;142920.56;;;-9.04
84287;BMP280;74445;55.252;61.092;2024-01-16T07:12:12;142870.00;;;-9.25
84287;BMP280;74445;55.252;61.092;2024-01-16T07:14:38;142821.81;;;-9.45
84287;BMP280;74445;55.252;61.092;2024-01-16T07:17:07;142723.13;;;-9.86
84287;BMP280;74445;55.252;61.092;2024-01-16T07:19:34;142599.25;;;-10.37
84287;BMP280;74445;55.252;61.092;2024-01-16T07:22:00;142509.03;;;-10.74
84287;BMP280;74445;55.252;61.092;2024-01-16T07:24:27;142448.91;;;-10.99
84287;BMP280;74445;55.252;61.092;2024-01-16T07:26:53;142414.06;;;-11.13
84287;BMP280;74445;55.252;61.092;2024-01-16T07:29:20;142365.97;;;-11.33
84287;BMP280;74445;55.252;61.092;2024-01-16T07:31:46;142286.72;;;-11.66
84287;BMP280;74445;55.252;61.092;2024-01-16T07:34:15;142268.72;;;-11.74
84287;BMP280;74445;55.252;61.092;2024-01-16T07:36:47;142163.03;;;-12.18
84287;BMP280;74445;55.252;61.092;2024-01-16T07:39:13;142129.41;;;-12.32
84287;BMP280;74445;55.252;61.092;2024-01-16T07:41:40;142084.94;;;-12.50
84287;BMP280;74445;55.252;61.092;2024-01-16T07:44:07;142045.34;;;-12.66
84287;BMP280;74445;55.252;61.092;2024-01-16T07:46:34;142033.34;;;-12.71
84287;BMP280;74445;55.252;61.092;2024-01-16T07:49:00;142026.16;;;-12.74
84287;BMP280;74445;55.252;61.092;2024-01-16T07:51:28;142068.13;;;-12.57
84287;BMP280;74445;55.252;61.092;2024-01-16T07:54:05;142137.78;;;-12.28
84287;BMP280;74445;55.252;61.092;2024-01-16T07:56:32;142235.09;;;-11.88
84287;BMP280;74445;55.252;61.092;2024-01-16T07:58:59;142269.91;;;-11.73
84287;BMP280;74445;55.252;61.092;2024-01-16T08:01:26;142334.75;;;-11.46
84287;BMP280;74445;55.252;61.092;2024-01-16T08:03:52;142339.53;;;-11.44
84287;BMP280;74445;55.252;61.092;2024-01-16T08:06:19;142350.34;;;-11.40
84287;BMP280;74445;55.252;61.092;2024-01-16T08:08:47;142320.31;;;-11.52
84287;BMP280;74445;55.252;61.092;2024-01-16T08:11:13;142297.56;;;-11.62
84287;BMP280;74445;55.252;61.092;2024-01-16T08:13:40;142327.53;;;-11.49
84287;BMP280;74445;55.252;61.092;2024-01-16T08:16:07;142292.75;;;-11.64
84287;BMP280;74445;55.252;61.092;2024-01-16T08:18:34;142309.56;;;-11.57
84287;BMP280;74445;55.252;61.092;2024-01-16T08:21:00;142337.13;;;-11.45
84287;BMP280;74445;55.252;61.092;2024-01-16T08:23:27;142344.34;;;-11.42
84287;BMP280;74445;55.252;61.092;2024-01-16T08:25:55;142353.97;;;-11.38
84287;BMP280;74445;55.252;61.092;2024-01-16T08:28:21;142361.19;;;-11.35
84287;BMP280;74445;55.252;61.092;2024-01-16T08:30:50;142378.00;;;-11.28
84287;BMP280;74445;55.252;61.092;2024-01-16T08:33:17;142380.41;;;-11.27
84287;BMP280;74445;55.252;61.092;2024-01-16T08:35:43;142345.53;;;-11.42
84287;BMP280;74445;55.252;61.092;2024-01-16T08:38:10;142338.31;;;-11.45
84287;BMP280;74445;55.252;61.092;2024-01-16T08:40:37;142313.16;;;-11.55
84287;BMP280;74445;55.252;61.092;2024-01-16T08:43:05;142259.09;;;-11.78
84287;BMP280;74445;55.252;61.092;2024-01-16T08:45:31;142251.91;;;-11.81
84287;BMP280;74445;55.252;61.092;2024-01-16T08:47:58;142211.06;;;-11.98
84287;BMP280;74445;55.252;61.092;2024-01-16T08:50:26;142217.03;;;-11.95
84287;BMP280;74445;55.252;61.092;2024-01-16T08:52:52;142232.69;;;-11.89
84287;BMP280;74445;55.252;61.092;2024-01-16T08:55:19;142255.47;;;-11.79
84287;BMP280;74445;55.252;61.092;2024-01-16T08:57:45;142245.88;;;-11.83
84287;BMP280;74445;55.252;61.092;2024-01-16T09:00:14;142307.16;;;-11.58
84287;BMP280;74445;55.252;61.092;2024-01-16T09:02:41;142293.94;;;-11.63
84287;BMP280;74445;55.252;61.092;2024-01-16T09:05:08;142274.69;;;-11.71
84287;BMP280;74445;55.252;61.092;2024-01-16T09:07:34;142317.91;;;-11.53
84287;BMP280;74445;55.252;61.092;2024-01-16T09:10:01;142332.34;;;-11.47
84287;BMP280;74445;55.252;61.092;2024-01-16T09:12:28;142331.16;;;-11.48
84287;BMP280;74445;55.252;61.092;2024-01-16T09:14:55;142356.38;;;-11.37
84287;BMP280;74445;55.252;61.092;2024-01-16T09:17:23;142384.00;;;-11.26
84287;BMP280;74445;55.252;61.092;2024-01-16T09:19:51;142417.66;;;-11.12
84287;BMP280;74445;55.252;61.092;2024-01-16T09:22:18;142367.16;;;-11.33
84287;BMP280;74445;55.252;61.092;2024-01-16T09:24:44;142353.97;;;-11.38
84287;BMP280;74445;55.252;61.092;2024-01-16T09:27:11;142376.78;;;-11.29
84287;BMP280;74445;55.252;61.092;2024-01-16T09:29:37;142346.75;;;-11.41
84287;BMP280;74445;55.252;61.092;2024-01-16T09:32:05;142337.13;;;-11.45
84287;BMP280;74445;55.252;61.092;2024-01-16T09:34:33;142358.78;;;-11.36
84287;BMP280;74445;55.252;61.092;2024-01-16T09:36:59;142314.38;;;-11.55
84287;BMP280;74445;55.252;61.092;2024-01-16T09:39:28;142310.75;;;-11.56
84287;BMP280;74445;55.252;61.092;2024-01-16T09:41:59;142339.53;;;-11.44
84287;BMP280;74445;55.252;61.092;2024-01-16T09:44:27;142320.31;;;-11.52
84287;BMP280;74445;55.252;61.092;2024-01-16T09:46:55;142275.94;;;-11.71
84287;BMP280;74445;55.252;61.092;2024-01-16T09:49:22;142269.91;;;-11.73
84287;BMP280;74445;55.252;61.092;2024-01-16T09:51:51;142262.69;;;-11.76
84287;BMP280;74445;55.252;61.092;2024-01-16T09:54:17;142214.63;;;-11.96
84287;BMP280;74445;55.252;61.092;2024-01-16T09:56:44;142201.44;;;-12.02
84287;BMP280;74445;55.252;61.092;2024-01-16T09:59:17;142160.63;;;-12.19
84287;BMP280;74445;55.252;61.092;2024-01-16T10:01:47;142160.63;;;-12.19
84287;BMP280;74445;55.252;61.092;2024-01-16T10:04:15;142125.78;;;-12.33
84287;BMP280;74445;55.252;61.092;2024-01-16T10:06:45;142130.56;;;-12.31
84287;BMP280;74445;55.252;61.092;2024-01-16T10:09:14;142130.56;;;-12.31
84287;BMP280;74445;55.252;61.092;2024-01-16T10:11:42;142106.56;;;-12.41
84287;BMP280;74445;55.252;61.092;2024-01-16T10:14:09;142094.56;;;-12.46
84287;BMP280;74445;55.252;61.092;2024-01-16T10:16:56;142096.94;;;-12.45
84287;BMP280;74445;55.252;61.092;2024-01-16T10:19:29;142092.16;;;-12.47
84287;BMP280;74445;55.252;61.092;2024-01-16T10:22:01;142131.78;;;-12.31
84287;BMP280;74445;55.252;61.092;2024-01-16T10:24:30;142077.75;;;-12.53
84287;BMP280;74445;55.252;61.092;2024-01-16T10:27:01;142068.13;;;-12.57
84287;BMP280;74445;55.252;61.092;2024-01-16T10:29:29;142080.16;;;-12.52
84287;BMP280;74445;55.252;61.092;2024-01-16T10:31:58;142060.94;;;-12.60
84287;BMP280;74445;55.252;61.092;2024-01-16T10:34:25;142052.56;;;-12.63
84287;BMP280;74445;55.252;61.092;2024-01-16T10:36:58;142036.94;;;-12.70
84287;BMP280;74445;55.252;61.092;2024-01-16T10:39:26;142003.38;;;-12.84
84287;BMP280;74445;55.252;61.092;2024-01-16T10:41:57;141967.41;;;-12.99
84287;BMP280;74445;55.252;61.092;2024-01-16T10:44:25;141960.22;;;-13.02
84287;BMP280;74445;55.252;61.092;2024-01-16T10:47:09;141973.38;;;-12.96
84287;BMP280;74445;55.252;61.092;2024-01-16T10:49:37;141945.81;;;-13.08
84287;BMP280;74445;55.252;61.092;2024-01-16T10:52:06;141943.41;;;-13.09
84287;BMP280;74445;55.252;61.092;2024-01-16T10:54:38;141926.63;;;-13.16
84287;BMP280;74445;55.252;61.092;2024-01-16T10:57:07;141923.00;;;-13.17
84287;BMP280;74445;55.252;61.092;2024-01-16T10:59:40;141923.00;;;-13.17
84287;BMP280;74445;55.252;61.092;2024-01-16T11:02:10;141939.78;;;-13.10
84287;BMP280;74445;55.252;61.092;2024-01-16T11:04:38;141899.00;;;-13.27
84287;BMP280;74445;55.252;61.092;2024-01-16T11:07:06;141851.03;;;-13.47
84287;BMP280;74445;55.252;61.092;2024-01-16T11:09:33;141843.81;;;-13.50
84287;BMP280;74445;55.252;61.092;2024-01-16T11:12:01;141823.47;;;-13.58
84287;BMP280;74445;55.252;61.092;2024-01-16T11:14:31;141801.88;;;-13.67
84287;BMP280;74445;55.252;61.092;2024-01-16T11:16:58;141780.28;;;-13.76
84287;BMP280;74445;55.252;61.092;2024-01-16T11:19:27;141782.69;;;-13.75
84287;BMP280;74445;55.252;61.092;2024-01-16T11:21:54;141755.09;;;-13.87
84287;BMP280;74445;55.252;61.092;2024-01-16T11:24:21;141719.13;;;-14.02
84287;BMP280;74445;55.252;61.092;2024-01-16T11:26:47;141713.16;;;-14.04
84287;BMP280;74445;55.252;61.092;2024-01-16T11:29:37;141699.97;;;-14.10
84287;BMP280;74445;55.252;61.092;2024-01-16T11:32:04;141642.50;;;-14.34
84287;BMP280;74445;55.252;61.092;2024-01-16T11:34:53;141655.66;;;-14.28
84287;BMP280;74445;55.252;61.092;2024-01-16T11:37:28;141634.09;;;-14.37
84287;BMP280;74445;55.252;61.092;2024-01-16T11:40:20;141625.72;;;-14.41
84287;BMP280;74445;55.252;61.092;2024-01-16T11:42:47;141600.53;;;-14.51
84287;BMP280;74445;55.252;61.092;2024-01-16T11:45:49;141566.97;;;-14.65
84287;BMP280;74445;55.252;61.092;2024-01-16T11:48:17;141545.41;;;-14.74
84287;BMP280;74445;55.252;61.092;2024-01-16T11:50:44;141516.66;;;-14.86
84287;BMP280;74445;55.252;61.092;2024-01-16T11:53:31;141502.28;;;-14.92
84287;BMP280;74445;55.252;61.092;2024-01-16T11:56:42;141484.34;;;-14.99
84287;BMP280;74445;55.252;61.092;2024-01-16T11:59:40;141448.44;;;-15.14
84287;BMP280;74445;55.252;61.092;2024-01-16T12:02:17;141428.03;;;-15.23
84287;BMP280;74445;55.252;61.092;2024-01-16T12:04:52;141423.25;;;-15.25
84287;BMP280;74445;55.252;61.092;2024-01-16T12:07:20;141411.38;;;-15.30
84287;BMP280;74445;55.252;61.092;2024-01-16T12:09:46;141392.22;;;-15.38
84287;BMP280;74445;55.252;61.092;2024-01-16T12:12:15;141395.78;;;-15.36
84287;BMP280;74445;55.252;61.092;2024-01-16T12:14:51;141395.78;;;-15.36
84287;BMP280;74445;55.252;61.092;2024-01-16T12:17:19;141375.47;;;-15.45
84287;BMP280;74445;55.252;61.092;2024-01-16T12:19:46;141386.22;;;-15.40
84287;BMP280;74445;55.252;61.092;2024-01-16T12:22:14;141382.63;;;-15.42
84287;BMP280;74445;55.252;61.092;2024-01-16T12:24:41;141370.66;;;-15.47
84287;BMP280;74445;55.252;61.092;2024-01-16T12:27:08;141369.44;;;-15.47
84287;BMP280;74445;55.252;61.092;2024-01-16T12:29:35;141368.28;;;-15.48
84287;BMP280;74445;55.252;61.092;2024-01-16T12:32:06;141380.25;;;-15.43
84287;BMP280;74445;55.252;61.092;2024-01-16T12:34:38;141364.66;;;-15.49
84287;BMP280;74445;55.252;61.092;2024-01-16T12:37:10;141350.28;;;-15.55
84287;BMP280;74445;55.252;61.092;2024-01-16T12:39:36;141325.19;;;-15.66
84287;BMP280;74445;55.252;61.092;2024-01-16T12:42:04;141322.78;;;-15.67
84287;BMP280;74445;55.252;61.092;2024-01-16T12:44:30;141291.66;;;-15.80
84287;BMP280;74445;55.252;61.092;2024-01-16T12:46:57;141297.63;;;-15.77
84287;BMP280;74445;55.252;61.092;2024-01-16T12:49:25;141270.13;;;-15.89
84287;BMP280;74445;55.252;61.092;2024-01-16T12:52:19;141248.59;;;-15.97
84287;BMP280;74445;55.252;61.092;2024-01-16T12:54:47;141212.69;;;-16.12
84287;BMP280;74445;55.252;61.092;2024-01-16T12:57:17;141188.78;;;-16.22
84287;BMP280;74445;55.252;61.092;2024-01-16T12:59:46;141146.94;;;-16.40
84287;BMP280;74445;55.252;61.092;2024-01-16T13:02:20;141133.78;;;-16.45
84287;BMP280;74445;55.252;61.092;2024-01-16T13:04:48;141120.63;;;-16.51
84287;BMP280;74445;55.252;61.092;2024-01-16T13:07:17;141148.16;;;-16.39
84287;BMP280;74445;55.252;61.092;2024-01-16T13:09:44;141130.19;;;-16.47
84287;BMP280;74445;55.252;61.092;2024-01-16T13:12:19;141109.88;;;-16.55
84287;BMP280;74445;55.252;61.092;2024-01-16T13:14:46;141109.88;;;-16.55
84287;BMP280;74445;55.252;61.092;2024-01-16T13:17:13;141112.28;;;-16.54
84287;BMP280;74445;55.252;61.092;2024-01-16T13:19:40;141115.84;;;-16.53
84287;BMP280;74445;55.252;61.092;2024-01-16T13:22:08;141097.91;;;-16.60
84287;BMP280;74445;55.252;61.092;2024-01-16T13:24:36;141088.34;;;-16.64
84287;BMP280;74445;55.252;61.092;2024-01-16T13:27:03;141100.31;;;-16.59
84287;BMP280;74445;55.252;61.092;2024-01-16T13:29:30;141087.19;;;-16.65
84287;BMP280;74445;55.252;61.092;2024-01-16T13:32:01;141105.09;;;-16.57
84287;BMP280;74445;55.252;61.092;2024-01-16T13:34:28;141105.09;;;-16.57
84287;BMP280;74445;55.252;61.092;2024-01-16T13:36:56;141096.75;;;-16.61
84287;BMP280;74445;55.252;61.092;2024-01-16T13:39:26;141083.56;;;-16.66
84287;BMP280;74445;55.252;61.092;2024-01-16T13:41:54;141057.25;;;-16.77